sensor_id;sensor_type;location;lat;lon;timestamp;temperature;humidity
56256;DHT22;57229;51.432;-2.598;2022-09-09T00:02:30;18.70;99.90
56256;DHT22;57229;51.432;-2.598;2022-09-09T00:11:12;18.60;99.90
56256;DHT22;57229;51.432;-2.598;2022-09-09T00:13:48;18.70;99.90
56256;DHT22;57229;51.432;-2.598;2022-09-09T00:27:08;18.80;99.90
56256;DHT22;57229;51.432;-2.598;2022-09-09T00:29:45;18.90;99.90
56256;DHT22;57229;51.432;-2.598;2022-09-09T00:32:15;19.00;99.90
56256;DHT22;57229;51.432;-2.598;2022-09-09T00:35:00;19.00;99.90
56256;DHT22;57229;51.432;-2.598;2022-09-09T00:37:30;19.10;99.90
56256;DHT22;57229;51.432;-2.598;2022-09-09T00:39:59;19.10;99.90
56256;DHT22;57229;51.432;-2.598;2022-09-09T00:49:13;19.00;99.90
56256;DHT22;57229;51.432;-2.598;2022-09-09T00:57:29;18.70;99.90
56256;DHT22;57229;51.432;-2.598;2022-09-09T01:00:57;18.80;99.90
56256;DHT22;57229;51.432;-2.598;2022-09-09T01:05:54;18.80;99.90
56256;DHT22;57229;51.432;-2.598;2022-09-09T01:11:22;18.90;99.90
56256;DHT22;57229;51.432;-2.598;2022-09-09T01:13:56;18.90;99.90
56256;DHT22;57229;51.432;-2.598;2022-09-09T01:16:24;18.90;99.90
56256;DHT22;57229;51.432;-2.598;2022-09-09T01:18:52;18.90;99.90
56256;DHT22;57229;51.432;-2.598;2022-09-09T01:21:50;18.90;99.90
56256;DHT22;57229;51.432;-2.598;2022-09-09T01:26:50;18.90;99.90
56256;DHT22;57229;51.432;-2.598;2022-09-09T01:29:18;18.90;99.90
56256;DHT22;57229;51.432;-2.598;2022-09-09T01:31:59;19.00;99.90
56256;DHT22;57229;51.432;-2.598;2022-09-09T01:34:38;19.00;99.90
56256;DHT22;57229;51.432;-2.598;2022-09-09T01:37:11;19.10;99.90
56256;DHT22;57229;51.432;-2.598;2022-09-09T01:39:40;19.10;99.90
56256;DHT22;57229;51.432;-2.598;2022-09-09T01:42:09;19.10;99.90
56256;DHT22;57229;51.432;-2.598;2022-09-09T01:44:36;19.20;99.90
56256;DHT22;57229;51.432;-2.598;2022-09-09T01:47:02;19.20;99.80
56256;DHT22;57229;51.432;-2.598;2022-09-09T01:49:28;19.10;99.80
56256;DHT22;57229;51.432;-2.598;2022-09-09T01:51:55;19.10;99.70
56256;DHT22;57229;51.432;-2.598;2022-09-09T01:54:24;19.10;99.80
56256;DHT22;57229;51.432;-2.598;2022-09-09T01:57:31;19.10;99.80
56256;DHT22;57229;51.432;-2.598;2022-09-09T02:00:09;19.10;99.70
56256;DHT22;57229;51.432;-2.598;2022-09-09T02:08:05;19.10;99.80
56256;DHT22;57229;51.432;-2.598;2022-09-09T02:13:11;19.00;99.80
56256;DHT22;57229;51.432;-2.598;2022-09-09T02:15:47;19.00;99.80
56256;DHT22;57229;51.432;-2.598;2022-09-09T02:18:18;19.00;99.80
56256;DHT22;57229;51.432;-2.598;2022-09-09T02:20:49;19.10;99.80
56256;DHT22;57229;51.432;-2.598;2022-09-09T02:23:17;19.10;99.60
56256;DHT22;57229;51.432;-2.598;2022-09-09T02:25:44;19.20;99.50
56256;DHT22;57229;51.432;-2.598;2022-09-09T02:28:13;19.20;99.50
56256;DHT22;57229;51.432;-2.598;2022-09-09T02:30:42;19.30;99.40
56256;DHT22;57229;51.432;-2.598;2022-09-09T02:33:10;19.30;99.20
56256;DHT22;57229;51.432;-2.598;2022-09-09T02:35:38;19.20;99.30
56256;DHT22;57229;51.432;-2.598;2022-09-09T02:38:09;19.20;99.30
56256;DHT22;57229;51.432;-2.598;2022-09-09T02:40:36;19.10;99.30
56256;DHT22;57229;51.432;-2.598;2022-09-09T02:43:01;19.10;99.40
56256;DHT22;57229;51.432;-2.598;2022-09-09T02:45:38;19.10;99.40
56256;DHT22;57229;51.432;-2.598;2022-09-09T02:48:35;19.10;99.40
56256;DHT22;57229;51.432;-2.598;2022-09-09T02:51:08;19.20;99.40
56256;DHT22;57229;51.432;-2.598;2022-09-09T02:56:21;19.10;99.20
56256;DHT22;57229;51.432;-2.598;2022-09-09T02:58:47;19.00;99.30
56256;DHT22;57229;51.432;-2.598;2022-09-09T03:01:14;18.90;99.60
56256;DHT22;57229;51.432;-2.598;2022-09-09T03:03:41;18.80;99.70
56256;DHT22;57229;51.432;-2.598;2022-09-09T03:06:11;18.70;99.90
56256;DHT22;57229;51.432;-2.598;2022-09-09T03:08:37;18.60;99.90
56256;DHT22;57229;51.432;-2.598;2022-09-09T03:11:03;18.50;99.90
56256;DHT22;57229;51.432;-2.598;2022-09-09T03:13:29;18.50;99.90
56256;DHT22;57229;51.432;-2.598;2022-09-09T03:15:55;18.60;99.90
56256;DHT22;57229;51.432;-2.598;2022-09-09T03:18:21;18.60;99.90
56256;DHT22;57229;51.432;-2.598;2022-09-09T03:20:47;18.70;99.90
56256;DHT22;57229;51.432;-2.598;2022-09-09T03:23:16;18.70;99.90
56256;DHT22;57229;51.432;-2.598;2022-09-09T03:25:50;18.70;99.90
56256;DHT22;57229;51.432;-2.598;2022-09-09T03:28:16;18.70;99.90
56256;DHT22;57229;51.432;-2.598;2022-09-09T03:30:42;18.70;99.90
56256;DHT22;57229;51.432;-2.598;2022-09-09T03:33:08;18.60;99.90
56256;DHT22;57229;51.432;-2.598;2022-09-09T03:35:34;18.50;99.90
56256;DHT22;57229;51.432;-2.598;2022-09-09T03:37:59;18.50;99.90
56256;DHT22;57229;51.432;-2.598;2022-09-09T03:40:26;18.40;99.90
56256;DHT22;57229;51.432;-2.598;2022-09-09T03:42:52;18.40;99.90
56256;DHT22;57229;51.432;-2.598;2022-09-09T03:45:18;18.40;99.90
56256;DHT22;57229;51.432;-2.598;2022-09-09T03:47:44;18.40;99.90
56256;DHT22;57229;51.432;-2.598;2022-09-09T03:50:10;18.40;99.90
56256;DHT22;57229;51.432;-2.598;2022-09-09T03:52:37;18.30;99.90
56256;DHT22;57229;51.432;-2.598;2022-09-09T03:55:04;18.30;99.90
56256;DHT22;57229;51.432;-2.598;2022-09-09T03:57:31;18.30;99.90
56256;DHT22;57229;51.432;-2.598;2022-09-09T03:59:58;18.30;99.90
56256;DHT22;57229;51.432;-2.598;2022-09-09T04:02:26;18.30;99.90
56256;DHT22;57229;51.432;-2.598;2022-09-09T04:04:52;18.30;99.90
56256;DHT22;57229;51.432;-2.598;2022-09-09T04:07:18;18.30;99.90
56256;DHT22;57229;51.432;-2.598;2022-09-09T04:09:43;18.30;99.90
56256;DHT22;57229;51.432;-2.598;2022-09-09T04:12:09;18.30;99.90
56256;DHT22;57229;51.432;-2.598;2022-09-09T04:14:38;18.30;99.90
56256;DHT22;57229;51.432;-2.598;2022-09-09T04:17:04;18.30;99.90
56256;DHT22;57229;51.432;-2.598;2022-09-09T04:19:32;18.40;99.90
56256;DHT22;57229;51.432;-2.598;2022-09-09T04:21:58;18.40;99.90
56256;DHT22;57229;51.432;-2.598;2022-09-09T04:24:25;18.40;99.90
56256;DHT22;57229;51.432;-2.598;2022-09-09T04:26:56;18.40;99.90
56256;DHT22;57229;51.432;-2.598;2022-09-09T04:29:22;18.40;99.90
56256;DHT22;57229;51.432;-2.598;2022-09-09T04:31:48;18.40;99.90
56256;DHT22;57229;51.432;-2.598;2022-09-09T04:34:14;18.40;99.90
56256;DHT22;57229;51.432;-2.598;2022-09-09T04:36:40;18.30;99.90
56256;DHT22;57229;51.432;-2.598;2022-09-09T04:39:06;18.30;99.90
56256;DHT22;57229;51.432;-2.598;2022-09-09T04:41:32;18.30;99.90
56256;DHT22;57229;51.432;-2.598;2022-09-09T04:43:58;18.30;99.90
56256;DHT22;57229;51.432;-2.598;2022-09-09T04:46:26;18.30;99.90
56256;DHT22;57229;51.432;-2.598;2022-09-09T04:48:52;18.30;99.90
56256;DHT22;57229;51.432;-2.598;2022-09-09T04:51:19;18.20;99.90
56256;DHT22;57229;51.432;-2.598;2022-09-09T04:53:45;18.10;99.90
56256;DHT22;57229;51.432;-2.598;2022-09-09T04:56:17;18.10;99.90
56256;DHT22;57229;51.432;-2.598;2022-09-09T04:58:44;18.10;99.90
56256;DHT22;57229;51.432;-2.598;2022-09-09T05:01:18;18.10;99.90
56256;DHT22;57229;51.432;-2.598;2022-09-09T05:03:44;18.10;99.90
56256;DHT22;57229;51.432;-2.598;2022-09-09T05:06:18;18.10;99.90
56256;DHT22;57229;51.432;-2.598;2022-09-09T05:08:44;18.10;99.90
56256;DHT22;57229;51.432;-2.598;2022-09-09T05:11:17;18.10;99.90
56256;DHT22;57229;51.432;-2.598;2022-09-09T05:13:44;18.10;99.90
56256;DHT22;57229;51.432;-2.598;2022-09-09T05:16:10;18.10;99.90
56256;DHT22;57229;51.432;-2.598;2022-09-09T05:18:38;18.20;99.90
56256;DHT22;57229;51.432;-2.598;2022-09-09T05:21:04;18.20;99.90
56256;DHT22;57229;51.432;-2.598;2022-09-09T05:23:31;18.20;99.90
56256;DHT22;57229;51.432;-2.598;2022-09-09T05:25:59;18.20;99.90
56256;DHT22;57229;51.432;-2.598;2022-09-09T05:28:25;18.20;99.90
56256;DHT22;57229;51.432;-2.598;2022-09-09T05:30:59;18.10;99.90
56256;DHT22;57229;51.432;-2.598;2022-09-09T05:33:26;18.10;99.90
56256;DHT22;57229;51.432;-2.598;2022-09-09T05:35:59;18.10;99.90
56256;DHT22;57229;51.432;-2.598;2022-09-09T05:38:25;18.10;99.90
56256;DHT22;57229;51.432;-2.598;2022-09-09T05:40:52;18.00;99.90
56256;DHT22;57229;51.432;-2.598;2022-09-09T05:43:19;17.90;99.90
56256;DHT22;57229;51.432;-2.598;2022-09-09T05:45:57;17.90;99.90
56256;DHT22;57229;51.432;-2.598;2022-09-09T05:48:23;18.00;99.90
56256;DHT22;57229;51.432;-2.598;2022-09-09T05:50:53;18.00;99.90
56256;DHT22;57229;51.432;-2.598;2022-09-09T05:53:19;18.00;99.90
56256;DHT22;57229;51.432;-2.598;2022-09-09T05:55:45;18.10;99.90
56256;DHT22;57229;51.432;-2.598;2022-09-09T05:58:11;18.10;99.90
56256;DHT22;57229;51.432;-2.598;2022-09-09T06:00:37;18.10;99.80
56256;DHT22;57229;51.432;-2.598;2022-09-09T06:03:03;18.10;99.60
56256;DHT22;57229;51.432;-2.598;2022-09-09T06:05:29;18.20;99.70
56256;DHT22;57229;51.432;-2.598;2022-09-09T06:07:55;18.10;99.70
56256;DHT22;57229;51.432;-2.598;2022-09-09T06:10:21;18.20;99.80
56256;DHT22;57229;51.432;-2.598;2022-09-09T06:12:47;18.20;99.80
56256;DHT22;57229;51.432;-2.598;2022-09-09T06:15:13;18.20;99.80
56256;DHT22;57229;51.432;-2.598;2022-09-09T06:17:39;18.20;99.60
56256;DHT22;57229;51.432;-2.598;2022-09-09T06:20:05;18.20;99.70
56256;DHT22;57229;51.432;-2.598;2022-09-09T06:22:31;18.20;99.70
56256;DHT22;57229;51.432;-2.598;2022-09-09T06:24:57;18.20;99.80
56256;DHT22;57229;51.432;-2.598;2022-09-09T06:27:22;18.20;99.90
56256;DHT22;57229;51.432;-2.598;2022-09-09T06:29:48;18.20;99.90
56256;DHT22;57229;51.432;-2.598;2022-09-09T06:32:13;18.30;99.90
56256;DHT22;57229;51.432;-2.598;2022-09-09T06:34:39;18.40;99.90
56256;DHT22;57229;51.432;-2.598;2022-09-09T06:37:05;18.40;99.90
56256;DHT22;57229;51.432;-2.598;2022-09-09T06:39:32;18.50;99.90
56256;DHT22;57229;51.432;-2.598;2022-09-09T06:41:57;18.50;99.90
56256;DHT22;57229;51.432;-2.598;2022-09-09T06:44:24;18.50;99.80
56256;DHT22;57229;51.432;-2.598;2022-09-09T06:46:52;18.50;99.80
56256;DHT22;57229;51.432;-2.598;2022-09-09T06:49:18;18.50;99.90
56256;DHT22;57229;51.432;-2.598;2022-09-09T06:51:44;18.50;99.90
56256;DHT22;57229;51.432;-2.598;2022-09-09T06:54:10;18.50;99.90
56256;DHT22;57229;51.432;-2.598;2022-09-09T06:56:38;18.50;99.90
56256;DHT22;57229;51.432;-2.598;2022-09-09T06:59:06;18.50;99.90
56256;DHT22;57229;51.432;-2.598;2022-09-09T07:01:36;18.50;99.90
56256;DHT22;57229;51.432;-2.598;2022-09-09T07:04:03;18.50;99.90
56256;DHT22;57229;51.432;-2.598;2022-09-09T07:06:35;18.50;99.90
56256;DHT22;57229;51.432;-2.598;2022-09-09T07:09:04;18.50;99.90
56256;DHT22;57229;51.432;-2.598;2022-09-09T07:11:38;18.50;99.90
56256;DHT22;57229;51.432;-2.598;2022-09-09T07:14:04;18.50;99.90
56256;DHT22;57229;51.432;-2.598;2022-09-09T07:16:29;18.60;99.90
56256;DHT22;57229;51.432;-2.598;2022-09-09T07:18:57;18.60;99.90
56256;DHT22;57229;51.432;-2.598;2022-09-09T07:21:27;18.60;99.90
56256;DHT22;57229;51.432;-2.598;2022-09-09T07:23:53;18.60;99.90
56256;DHT22;57229;51.432;-2.598;2022-09-09T07:26:21;18.60;99.90
56256;DHT22;57229;51.432;-2.598;2022-09-09T07:28:47;18.70;99.90
56256;DHT22;57229;51.432;-2.598;2022-09-09T07:31:21;18.70;99.90
56256;DHT22;57229;51.432;-2.598;2022-09-09T07:33:47;18.70;99.90
56256;DHT22;57229;51.432;-2.598;2022-09-09T07:36:20;18.70;99.90
56256;DHT22;57229;51.432;-2.598;2022-09-09T07:38:58;18.70;99.90
56256;DHT22;57229;51.432;-2.598;2022-09-09T07:41:27;18.70;99.90
56256;DHT22;57229;51.432;-2.598;2022-09-09T07:43:53;18.70;99.90
56256;DHT22;57229;51.432;-2.598;2022-09-09T07:46:21;18.80;99.90
56256;DHT22;57229;51.432;-2.598;2022-09-09T07:48:49;18.80;99.90
56256;DHT22;57229;51.432;-2.598;2022-09-09T07:51:24;18.80;99.90
56256;DHT22;57229;51.432;-2.598;2022-09-09T07:53:58;18.80;99.90
56256;DHT22;57229;51.432;-2.598;2022-09-09T07:56:26;18.80;99.40
56256;DHT22;57229;51.432;-2.598;2022-09-09T07:58:53;18.70;99.70
56256;DHT22;57229;51.432;-2.598;2022-09-09T08:01:23;18.70;99.80
56256;DHT22;57229;51.432;-2.598;2022-09-09T08:03:56;18.70;99.80
56256;DHT22;57229;51.432;-2.598;2022-09-09T08:06:25;18.70;99.70
56256;DHT22;57229;51.432;-2.598;2022-09-09T08:08:52;18.70;99.50
56256;DHT22;57229;51.432;-2.598;2022-09-09T08:11:18;18.70;99.10
56256;DHT22;57229;51.432;-2.598;2022-09-09T08:13:44;18.70;98.80
56256;DHT22;57229;51.432;-2.598;2022-09-09T08:16:11;18.70;98.90
56256;DHT22;57229;51.432;-2.598;2022-09-09T08:18:38;18.70;98.80
56256;DHT22;57229;51.432;-2.598;2022-09-09T08:21:10;18.70;99.20
56256;DHT22;57229;51.432;-2.598;2022-09-09T08:23:40;18.70;99.00
56256;DHT22;57229;51.432;-2.598;2022-09-09T08:26:17;18.80;99.20
56256;DHT22;57229;51.432;-2.598;2022-09-09T08:28:44;18.80;98.40
56256;DHT22;57229;51.432;-2.598;2022-09-09T08:31:13;18.80;98.80
56256;DHT22;57229;51.432;-2.598;2022-09-09T08:33:39;18.80;98.50
56256;DHT22;57229;51.432;-2.598;2022-09-09T08:36:10;18.80;97.70
56256;DHT22;57229;51.432;-2.598;2022-09-09T08:38:36;18.70;97.70
56256;DHT22;57229;51.432;-2.598;2022-09-09T08:44:06;18.70;97.80
56256;DHT22;57229;51.432;-2.598;2022-09-09T08:51:39;18.60;98.10
56256;DHT22;57229;51.432;-2.598;2022-09-09T08:54:05;18.60;98.20
56256;DHT22;57229;51.432;-2.598;2022-09-09T08:56:32;18.50;97.80
56256;DHT22;57229;51.432;-2.598;2022-09-09T08:59:01;18.50;98.10
56256;DHT22;57229;51.432;-2.598;2022-09-09T09:10:12;18.50;98.50
56256;DHT22;57229;51.432;-2.598;2022-09-09T09:12:41;18.50;98.70
56256;DHT22;57229;51.432;-2.598;2022-09-09T09:15:18;18.50;98.70
56256;DHT22;57229;51.432;-2.598;2022-09-09T09:17:44;18.50;99.00
56256;DHT22;57229;51.432;-2.598;2022-09-09T09:20:18;18.50;98.80
56256;DHT22;57229;51.432;-2.598;2022-09-09T09:22:51;18.50;98.70
56256;DHT22;57229;51.432;-2.598;2022-09-09T09:25:32;18.50;98.60
56256;DHT22;57229;51.432;-2.598;2022-09-09T09:28:16;18.40;98.80
56256;DHT22;57229;51.432;-2.598;2022-09-09T09:30:59;18.40;98.70
56256;DHT22;57229;51.432;-2.598;2022-09-09T09:36:07;18.40;99.20
56256;DHT22;57229;51.432;-2.598;2022-09-09T09:38:35;18.40;98.90
56256;DHT22;57229;51.432;-2.598;2022-09-09T09:41:01;18.40;99.10
56256;DHT22;57229;51.432;-2.598;2022-09-09T09:43:32;18.40;99.20
56256;DHT22;57229;51.432;-2.598;2022-09-09T09:45:58;18.40;99.00
56256;DHT22;57229;51.432;-2.598;2022-09-09T09:48:26;18.40;99.10
56256;DHT22;57229;51.432;-2.598;2022-09-09T09:51:09;18.40;99.00
56256;DHT22;57229;51.432;-2.598;2022-09-09T09:53:38;18.30;99.30
56256;DHT22;57229;51.432;-2.598;2022-09-09T09:56:11;18.30;99.20
56256;DHT22;57229;51.432;-2.598;2022-09-09T09:58:58;18.40;99.40
56256;DHT22;57229;51.432;-2.598;2022-09-09T10:01:27;18.40;99.10
56256;DHT22;57229;51.432;-2.598;2022-09-09T10:04:14;18.40;99.20
56256;DHT22;57229;51.432;-2.598;2022-09-09T10:06:42;18.40;99.40
56256;DHT22;57229;51.432;-2.598;2022-09-09T10:09:28;18.40;99.30
56256;DHT22;57229;51.432;-2.598;2022-09-09T10:18:08;18.50;99.50
56256;DHT22;57229;51.432;-2.598;2022-09-09T10:23:26;18.50;99.60
56256;DHT22;57229;51.432;-2.598;2022-09-09T10:26:16;18.40;99.40
56256;DHT22;57229;51.432;-2.598;2022-09-09T10:31:53;18.40;99.80
56256;DHT22;57229;51.432;-2.598;2022-09-09T10:34:57;18.40;99.90
56256;DHT22;57229;51.432;-2.598;2022-09-09T10:37:44;18.50;99.90
56256;DHT22;57229;51.432;-2.598;2022-09-09T10:42:59;18.40;99.90
56256;DHT22;57229;51.432;-2.598;2022-09-09T10:45:35;18.50;99.90
56256;DHT22;57229;51.432;-2.598;2022-09-09T10:54:13;18.50;99.90
56256;DHT22;57229;51.432;-2.598;2022-09-09T10:56:42;18.50;99.90
56256;DHT22;57229;51.432;-2.598;2022-09-09T10:59:18;18.50;99.90
56256;DHT22;57229;51.432;-2.598;2022-09-09T11:01:53;18.50;99.90
56256;DHT22;57229;51.432;-2.598;2022-09-09T11:04:42;18.50;99.90
56256;DHT22;57229;51.432;-2.598;2022-09-09T11:07:14;18.60;99.90
56256;DHT22;57229;51.432;-2.598;2022-09-09T11:09:52;18.70;99.90
56256;DHT22;57229;51.432;-2.598;2022-09-09T11:12:19;18.80;99.90
56256;DHT22;57229;51.432;-2.598;2022-09-09T11:15:04;18.90;99.90
56256;DHT22;57229;51.432;-2.598;2022-09-09T11:17:40;18.80;99.80
56256;DHT22;57229;51.432;-2.598;2022-09-09T11:20:12;18.90;99.90
56256;DHT22;57229;51.432;-2.598;2022-09-09T11:22:49;18.80;99.90
56256;DHT22;57229;51.432;-2.598;2022-09-09T11:35:50;19.30;99.60
56256;DHT22;57229;51.432;-2.598;2022-09-09T11:41:04;19.60;99.10
56256;DHT22;57229;51.432;-2.598;2022-09-09T11:43:44;19.90;98.70
56256;DHT22;57229;51.432;-2.598;2022-09-09T11:46:10;20.10;98.00
56256;DHT22;57229;51.432;-2.598;2022-09-09T11:48:40;20.00;97.40
56256;DHT22;57229;51.432;-2.598;2022-09-09T11:51:13;20.00;97.70
56256;DHT22;57229;51.432;-2.598;2022-09-09T11:53:53;19.90;97.90
56256;DHT22;57229;51.432;-2.598;2022-09-09T11:56:44;19.80;98.10
56256;DHT22;57229;51.432;-2.598;2022-09-09T11:59:28;19.80;98.40
56256;DHT22;57229;51.432;-2.598;2022-09-09T12:02:02;19.70;98.10
56256;DHT22;57229;51.432;-2.598;2022-09-09T12:04:30;19.70;98.10
56256;DHT22;57229;51.432;-2.598;2022-09-09T12:06:59;19.60;98.50
56256;DHT22;57229;51.432;-2.598;2022-09-09T12:15:17;19.60;98.90
56256;DHT22;57229;51.432;-2.598;2022-09-09T12:17:45;19.50;98.90
56256;DHT22;57229;51.432;-2.598;2022-09-09T12:20:23;19.50;98.90
56256;DHT22;57229;51.432;-2.598;2022-09-09T12:26:03;19.40;98.90
56256;DHT22;57229;51.432;-2.598;2022-09-09T12:31:31;19.40;99.20
56256;DHT22;57229;51.432;-2.598;2022-09-09T12:37:27;19.40;99.40
56256;DHT22;57229;51.432;-2.598;2022-09-09T12:39:55;19.30;99.50
56256;DHT22;57229;51.432;-2.598;2022-09-09T12:42:22;19.30;99.80
56256;DHT22;57229;51.432;-2.598;2022-09-09T12:44:57;19.30;99.90
56256;DHT22;57229;51.432;-2.598;2022-09-09T12:47:48;19.30;99.90
56256;DHT22;57229;51.432;-2.598;2022-09-09T12:50:43;19.30;99.90
56256;DHT22;57229;51.432;-2.598;2022-09-09T12:53:12;19.20;99.90
56256;DHT22;57229;51.432;-2.598;2022-09-09T12:55:59;19.10;99.90
56256;DHT22;57229;51.432;-2.598;2022-09-09T12:58:26;19.10;99.90
56256;DHT22;57229;51.432;-2.598;2022-09-09T13:00:55;19.10;99.90
56256;DHT22;57229;51.432;-2.598;2022-09-09T13:03:22;19.10;99.90
56256;DHT22;57229;51.432;-2.598;2022-09-09T13:05:49;19.10;99.90
56256;DHT22;57229;51.432;-2.598;2022-09-09T13:08:16;19.10;99.90
56256;DHT22;57229;51.432;-2.598;2022-09-09T13:11:01;19.10;99.90
56256;DHT22;57229;51.432;-2.598;2022-09-09T13:13:34;19.10;99.90
56256;DHT22;57229;51.432;-2.598;2022-09-09T13:16:02;19.10;99.90
56256;DHT22;57229;51.432;-2.598;2022-09-09T13:18:34;19.10;99.90
56256;DHT22;57229;51.432;-2.598;2022-09-09T13:21:01;19.10;99.90
56256;DHT22;57229;51.432;-2.598;2022-09-09T13:23:32;19.10;99.90
56256;DHT22;57229;51.432;-2.598;2022-09-09T13:26:20;19.00;99.90
56256;DHT22;57229;51.432;-2.598;2022-09-09T13:28:49;19.10;99.90
56256;DHT22;57229;51.432;-2.598;2022-09-09T13:31:27;19.10;99.90
56256;DHT22;57229;51.432;-2.598;2022-09-09T13:33:53;19.10;99.90
56256;DHT22;57229;51.432;-2.598;2022-09-09T13:36:31;19.20;99.90
56256;DHT22;57229;51.432;-2.598;2022-09-09T13:38:59;19.20;99.90
56256;DHT22;57229;51.432;-2.598;2022-09-09T13:41:36;19.30;99.90
56256;DHT22;57229;51.432;-2.598;2022-09-09T13:44:19;19.40;99.90
56256;DHT22;57229;51.432;-2.598;2022-09-09T13:47:03;19.50;99.90
56256;DHT22;57229;51.432;-2.598;2022-09-09T13:49:30;19.60;99.90
56256;DHT22;57229;51.432;-2.598;2022-09-09T13:52:16;19.70;99.90
56256;DHT22;57229;51.432;-2.598;2022-09-09T13:54:49;19.80;99.90
56256;DHT22;57229;51.432;-2.598;2022-09-09T13:59:42;19.80;99.90
56256;DHT22;57229;51.432;-2.598;2022-09-09T14:02:08;19.90;99.90
56256;DHT22;57229;51.432;-2.598;2022-09-09T14:04:34;19.90;99.90
56256;DHT22;57229;51.432;-2.598;2022-09-09T14:07:01;19.90;99.90
56256;DHT22;57229;51.432;-2.598;2022-09-09T14:09:26;19.90;99.70
56256;DHT22;57229;51.432;-2.598;2022-09-09T14:11:52;19.90;99.70
56256;DHT22;57229;51.432;-2.598;2022-09-09T14:14:18;19.80;99.80
56256;DHT22;57229;51.432;-2.598;2022-09-09T14:16:44;19.80;99.80
56256;DHT22;57229;51.432;-2.598;2022-09-09T14:19:09;19.80;99.80
56256;DHT22;57229;51.432;-2.598;2022-09-09T14:21:35;19.80;99.90
56256;DHT22;57229;51.432;-2.598;2022-09-09T14:24:01;19.80;99.40
56256;DHT22;57229;51.432;-2.598;2022-09-09T14:26:27;19.80;99.30
56256;DHT22;57229;51.432;-2.598;2022-09-09T14:28:54;19.80;99.50
56256;DHT22;57229;51.432;-2.598;2022-09-09T14:31:20;19.70;99.30
56256;DHT22;57229;51.432;-2.598;2022-09-09T14:33:46;19.80;99.30
56256;DHT22;57229;51.432;-2.598;2022-09-09T14:36:12;19.80;99.30
56256;DHT22;57229;51.432;-2.598;2022-09-09T14:38:38;19.90;99.40
56256;DHT22;57229;51.432;-2.598;2022-09-09T14:41:06;19.90;99.20
56256;DHT22;57229;51.432;-2.598;2022-09-09T14:43:32;20.00;99.40
56256;DHT22;57229;51.432;-2.598;2022-09-09T14:46:08;20.10;99.30
56256;DHT22;57229;51.432;-2.598;2022-09-09T14:48:35;20.20;98.90
56256;DHT22;57229;51.432;-2.598;2022-09-09T14:51:08;20.30;98.80
56256;DHT22;57229;51.432;-2.598;2022-09-09T14:53:34;20.30;98.80
56256;DHT22;57229;51.432;-2.598;2022-09-09T14:56:11;20.30;98.30
56256;DHT22;57229;51.432;-2.598;2022-09-09T14:58:38;20.20;97.80
56256;DHT22;57229;51.432;-2.598;2022-09-09T15:01:09;20.20;97.20
56256;DHT22;57229;51.432;-2.598;2022-09-09T15:03:38;20.20;97.50
56256;DHT22;57229;51.432;-2.598;2022-09-09T15:06:12;20.10;97.10
56256;DHT22;57229;51.432;-2.598;2022-09-09T15:08:43;20.10;97.40
56256;DHT22;57229;51.432;-2.598;2022-09-09T15:11:10;20.10;97.70
56256;DHT22;57229;51.432;-2.598;2022-09-09T15:13:38;20.20;97.70
56256;DHT22;57229;51.432;-2.598;2022-09-09T15:18:31;20.30;97.80
56256;DHT22;57229;51.432;-2.598;2022-09-09T15:20:59;20.30;97.90
56256;DHT22;57229;51.432;-2.598;2022-09-09T15:23:25;20.40;98.20
56256;DHT22;57229;51.432;-2.598;2022-09-09T15:25:55;20.40;98.20
56256;DHT22;57229;51.432;-2.598;2022-09-09T15:28:22;20.40;98.40
56256;DHT22;57229;51.432;-2.598;2022-09-09T15:30:52;20.50;98.40
56256;DHT22;57229;51.432;-2.598;2022-09-09T15:33:19;20.50;98.50
56256;DHT22;57229;51.432;-2.598;2022-09-09T15:35:45;20.50;98.30
56256;DHT22;57229;51.432;-2.598;2022-09-09T15:38:11;20.60;98.30
56256;DHT22;57229;51.432;-2.598;2022-09-09T15:40:40;20.60;98.30
56256;DHT22;57229;51.432;-2.598;2022-09-09T15:43:07;20.60;98.30
56256;DHT22;57229;51.432;-2.598;2022-09-09T15:45:33;20.60;98.20
56256;DHT22;57229;51.432;-2.598;2022-09-09T15:48:00;20.60;98.10
56256;DHT22;57229;51.432;-2.598;2022-09-09T15:50:26;20.70;98.00
56256;DHT22;57229;51.432;-2.598;2022-09-09T15:52:52;20.80;97.60
56256;DHT22;57229;51.432;-2.598;2022-09-09T15:55:19;20.80;97.20
56256;DHT22;57229;51.432;-2.598;2022-09-09T15:57:46;20.90;97.30
56256;DHT22;57229;51.432;-2.598;2022-09-09T16:00:12;20.80;97.20
56256;DHT22;57229;51.432;-2.598;2022-09-09T16:02:39;20.90;97.20
56256;DHT22;57229;51.432;-2.598;2022-09-09T16:05:05;20.90;97.00
56256;DHT22;57229;51.432;-2.598;2022-09-09T16:07:31;20.90;96.70
56256;DHT22;57229;51.432;-2.598;2022-09-09T16:09:57;20.90;96.90
56256;DHT22;57229;51.432;-2.598;2022-09-09T16:12:23;20.80;97.00
56256;DHT22;57229;51.432;-2.598;2022-09-09T16:14:48;20.80;97.20
56256;DHT22;57229;51.432;-2.598;2022-09-09T16:17:15;20.80;97.40
56256;DHT22;57229;51.432;-2.598;2022-09-09T16:19:41;20.80;97.20
56256;DHT22;57229;51.432;-2.598;2022-09-09T16:22:06;20.90;97.10
56256;DHT22;57229;51.432;-2.598;2022-09-09T16:24:32;20.90;96.80
56256;DHT22;57229;51.432;-2.598;2022-09-09T16:26:58;20.90;96.60
56256;DHT22;57229;51.432;-2.598;2022-09-09T16:29:24;20.90;96.70
56256;DHT22;57229;51.432;-2.598;2022-09-09T16:31:53;20.90;96.80
56256;DHT22;57229;51.432;-2.598;2022-09-09T16:34:19;21.00;96.80
56256;DHT22;57229;51.432;-2.598;2022-09-09T16:36:46;21.00;96.70
56256;DHT22;57229;51.432;-2.598;2022-09-09T16:39:19;21.00;96.60
56256;DHT22;57229;51.432;-2.598;2022-09-09T16:41:46;21.00;96.50
56256;DHT22;57229;51.432;-2.598;2022-09-09T16:44:14;21.10;96.50
56256;DHT22;57229;51.432;-2.598;2022-09-09T16:46:43;21.10;96.50
56256;DHT22;57229;51.432;-2.598;2022-09-09T16:49:11;21.10;96.50
56256;DHT22;57229;51.432;-2.598;2022-09-09T16:51:43;21.10;96.50
56256;DHT22;57229;51.432;-2.598;2022-09-09T16:54:10;21.10;96.60
56256;DHT22;57229;51.432;-2.598;2022-09-09T16:56:38;21.00;96.80
56256;DHT22;57229;51.432;-2.598;2022-09-09T16:59:10;21.00;96.70
56256;DHT22;57229;51.432;-2.598;2022-09-09T17:01:38;20.90;96.80
56256;DHT22;57229;51.432;-2.598;2022-09-09T17:04:08;20.80;97.10
56256;DHT22;57229;51.432;-2.598;2022-09-09T17:06:34;20.70;97.30
56256;DHT22;57229;51.432;-2.598;2022-09-09T17:09:05;20.60;97.50
56256;DHT22;57229;51.432;-2.598;2022-09-09T17:11:31;20.60;97.60
56256;DHT22;57229;51.432;-2.598;2022-09-09T17:13:57;20.50;97.60
56256;DHT22;57229;51.432;-2.598;2022-09-09T17:16:25;20.50;97.80
56256;DHT22;57229;51.432;-2.598;2022-09-09T17:18:53;20.50;98.10
56256;DHT22;57229;51.432;-2.598;2022-09-09T17:21:22;20.40;98.60
56256;DHT22;57229;51.432;-2.598;2022-09-09T17:23:49;20.40;98.90
56256;DHT22;57229;51.432;-2.598;2022-09-09T17:26:17;20.30;99.10
56256;DHT22;57229;51.432;-2.598;2022-09-09T17:28:44;20.30;99.40
56256;DHT22;57229;51.432;-2.598;2022-09-09T17:31:13;20.20;99.70
56256;DHT22;57229;51.432;-2.598;2022-09-09T17:33:42;20.20;99.70
56256;DHT22;57229;51.432;-2.598;2022-09-09T17:36:12;20.20;99.90